createdAt,value
2018-02-06T00:00:49.762Z,47.08
2018-02-06T00:03:15.719Z,46.92
2018-02-06T00:05:41.664Z,46.86
2018-02-06T00:08:07.625Z,47.00
2018-02-06T00:10:33.650Z,46.98
2018-02-06T00:12:59.599Z,46.97
2018-02-06T00:15:25.560Z,46.93
2018-02-06T00:17:51.497Z,47.06
2018-02-06T00:20:17.454Z,47.14
2018-02-06T00:22:43.417Z,46.98
2018-02-06T00:25:09.395Z,46.93
2018-02-06T00:27:35.337Z,46.96
2018-02-06T00:30:01.266Z,46.96
2018-02-06T00:32:27.229Z,46.73
2018-02-06T00:34:53.174Z,46.88
2018-02-06T00:37:19.163Z,47.07
2018-02-06T00:39:45.105Z,46.75
2018-02-06T00:42:11.077Z,46.98
2018-02-06T00:44:37.033Z,46.81
2018-02-06T00:47:02.971Z,46.99
2018-02-06T00:49:28.934Z,46.79
2018-02-06T00:51:54.919Z,46.84
2018-02-06T00:54:20.873Z,46.86
2018-02-06T00:56:46.829Z,46.82
2018-02-06T00:59:12.853Z,46.92
2018-02-06T01:01:38.833Z,46.69
2018-02-06T01:04:04.779Z,46.77
2018-02-06T01:06:30.778Z,46.86
2018-02-06T01:08:56.766Z,46.74
2018-02-06T01:11:22.702Z,46.81
2018-02-06T01:13:48.645Z,46.76
2018-02-06T01:16:14.681Z,46.75
2018-02-06T01:18:40.722Z,46.86
2018-02-06T01:21:06.679Z,46.64
2018-02-06T01:23:32.629Z,46.75
2018-02-06T01:25:58.586Z,46.70
2018-02-06T01:28:24.529Z,46.76
2018-02-06T01:30:50.501Z,46.67
2018-02-06T01:33:16.491Z,46.64
2018-02-06T01:35:42.433Z,46.75
2018-02-06T01:38:08.394Z,46.81
2018-02-06T01:40:34.329Z,46.71
2018-02-06T01:43:00.269Z,46.51
2018-02-06T01:45:26.222Z,46.45
2018-02-06T01:47:52.197Z,46.78
2018-02-06T01:50:18.174Z,46.32
2018-02-06T01:52:44.121Z,46.54
2018-02-06T01:55:10.093Z,46.73
2018-02-06T01:57:36.049Z,46.68
2018-02-06T02:00:02.025Z,46.66
2018-02-06T02:02:28.069Z,46.92
2018-02-06T02:04:54.036Z,46.61
2018-02-06T02:07:19.989Z,46.52
2018-02-06T02:09:45.942Z,46.52
2018-02-06T02:12:11.905Z,46.46
2018-02-06T02:14:37.845Z,46.72
2018-02-06T02:17:03.812Z,46.58
2018-02-06T02:19:29.758Z,46.59
2018-02-06T02:21:55.729Z,46.68
2018-02-06T02:24:21.684Z,46.59
2018-02-06T02:26:47.637Z,46.59
2018-02-06T02:29:13.588Z,46.58
2018-02-06T02:31:39.531Z,46.38
2018-02-06T02:34:05.489Z,46.53
2018-02-06T02:36:31.437Z,46.46
2018-02-06T02:38:57.416Z,46.49
2018-02-06T02:41:23.365Z,46.30
2018-02-06T04:40:35.564Z,44.85
2018-02-06T04:43:01.534Z,44.84
2018-02-06T04:45:27.525Z,44.78
2018-02-06T04:47:53.480Z,44.66
2018-02-06T04:50:19.424Z,44.90
2018-02-06T04:52:45.538Z,44.92
2018-02-06T04:55:11.478Z,45.17
2018-02-06T04:57:37.449Z,45.36
2018-02-06T05:00:03.405Z,45.31
2018-02-06T05:02:29.340Z,45.25
2018-02-06T05:04:55.308Z,45.26
2018-02-06T05:07:21.251Z,45.78
2018-02-06T05:09:47.204Z,45.66
2018-02-06T05:12:13.149Z,45.91
2018-02-06T05:14:39.101Z,45.88
2018-02-06T05:17:05.113Z,45.75
2018-02-06T05:19:31.090Z,45.78
2018-02-06T05:21:57.041Z,45.45
2018-02-06T05:24:23.049Z,45.78
2018-02-06T05:26:49.008Z,46.03
2018-02-06T05:29:14.961Z,46.03
2018-02-06T05:31:40.949Z,45.84
2018-02-06T05:34:06.901Z,45.91
2018-02-06T05:36:32.861Z,45.92
2018-02-06T05:38:58.801Z,46.06
2018-02-06T05:41:24.776Z,46.14
2018-02-06T05:43:50.733Z,46.23
2018-02-06T05:46:16.702Z,46.09
2018-02-06T05:48:42.705Z,45.84
2018-02-06T05:51:08.666Z,45.49
2018-02-06T05:53:34.620Z,45.34
2018-02-06T05:56:00.601Z,45.63
2018-02-06T05:58:26.590Z,45.75
2018-02-06T06:00:52.523Z,45.76
2018-02-06T06:03:18.485Z,45.38
2018-02-06T06:05:44.466Z,45.50
2018-02-06T06:08:10.417Z,45.50
2018-02-06T06:10:36.385Z,45.71
2018-02-06T06:13:02.335Z,45.75
2018-02-06T06:15:28.286Z,45.99
2018-02-06T06:17:54.225Z,45.79
2018-02-06T06:20:20.201Z,45.88
2018-02-06T06:22:46.149Z,45.83
2018-02-06T06:25:12.120Z,45.83
2018-02-06T06:27:38.066Z,46.04
2018-02-06T06:30:04.028Z,46.14
2018-02-06T06:32:30.001Z,46.29
2018-02-06T06:34:55.957Z,46.08
2018-02-06T06:37:21.918Z,45.82
2018-02-06T06:39:47.868Z,45.75
2018-02-06T06:42:13.825Z,45.96
2018-02-06T06:44:39.789Z,46.12
2018-02-06T06:47:05.744Z,45.94
2018-02-06T06:49:31.705Z,45.46
2018-02-06T06:51:57.672Z,45.33
2018-02-06T06:54:23.664Z,45.38
2018-02-06T06:56:49.610Z,45.26
2018-02-06T06:59:15.541Z,45.50
2018-02-06T07:01:41.501Z,45.55
2018-02-06T07:04:07.528Z,45.77
2018-02-06T07:06:33.490Z,45.72
2018-02-06T07:08:59.448Z,45.81
2018-02-06T07:11:25.440Z,45.70
2018-02-06T07:13:51.397Z,45.71
2018-02-06T07:16:17.325Z,45.99
2018-02-06T07:18:43.305Z,46.22
2018-02-06T07:21:09.264Z,45.91
2018-02-06T07:23:35.201Z,45.81
2018-02-06T07:26:01.145Z,45.86
2018-02-06T07:28:27.193Z,45.81
2018-02-06T07:30:53.165Z,45.79
2018-02-06T07:33:19.133Z,45.14
2018-02-06T07:35:45.073Z,45.27
2018-02-06T07:38:11.835Z,45.02
2018-02-06T07:40:37.773Z,45.16
2018-02-06T07:43:03.742Z,45.29
2018-02-06T07:45:29.677Z,45.28
2018-02-06T07:47:55.733Z,45.17
2018-02-06T07:50:21.681Z,45.53
2018-02-06T07:52:47.627Z,45.58
2018-02-06T07:55:13.581Z,45.41
2018-02-06T07:57:39.521Z,45.21
2018-02-06T08:00:05.473Z,44.93
2018-02-06T08:02:31.430Z,45.11
2018-02-06T08:04:57.391Z,45.49
2018-02-06T08:07:23.329Z,45.71
2018-02-06T08:09:49.284Z,45.83
2018-02-06T08:12:15.270Z,45.84
2018-02-06T08:14:41.218Z,45.67
2018-02-06T08:17:07.214Z,45.92
2018-02-06T08:19:33.173Z,46.12
2018-02-06T08:21:59.146Z,46.20
2018-02-06T08:24:25.123Z,45.77
2018-02-06T08:26:51.064Z,45.46
2018-02-06T08:29:17.037Z,45.62
2018-02-06T08:31:43.021Z,45.60
2018-02-06T08:34:08.981Z,45.56
2018-02-06T08:36:35.024Z,45.67
2018-02-06T08:39:00.986Z,45.71
2018-02-06T08:41:26.925Z,45.59
2018-02-06T08:43:52.864Z,45.61
2018-02-06T08:46:18.865Z,45.94
2018-02-06T08:48:44.806Z,45.94
2018-02-06T08:51:10.809Z,46.10
2018-02-06T08:53:36.773Z,46.95
2018-02-06T08:56:02.736Z,46.96
2018-02-06T08:58:28.678Z,46.71
2018-02-06T09:00:54.622Z,46.69
2018-02-06T09:03:20.585Z,47.31
2018-02-06T09:05:46.529Z,47.30
2018-02-06T09:08:12.494Z,45.99
2018-02-06T09:10:38.442Z,43.60
2018-02-06T09:13:04.404Z,45.23
2018-02-06T09:15:30.360Z,44.69
2018-02-06T09:17:56.307Z,44.83
2018-02-06T09:20:22.273Z,45.30
2018-02-06T09:22:48.245Z,45.38
2018-02-06T09:25:14.178Z,45.45
2018-02-06T09:27:40.144Z,45.42
2018-02-06T09:30:06.092Z,45.22
2018-02-06T09:32:32.066Z,45.63
2018-02-06T09:34:58.098Z,45.73
2018-02-06T09:37:24.036Z,45.70
2018-02-06T09:39:49.993Z,45.63
2018-02-06T09:42:15.937Z,45.85
2018-02-06T09:44:41.907Z,45.51
2018-02-06T09:47:07.864Z,45.27
2018-02-06T09:49:33.821Z,45.58
2018-02-06T09:51:59.766Z,45.49
2018-02-06T09:54:25.738Z,45.85
2018-02-06T09:56:51.673Z,45.84
2018-02-06T09:59:17.658Z,45.70
2018-02-06T10:01:43.597Z,45.68
2018-02-06T10:04:09.554Z,45.94
2018-02-06T10:06:35.504Z,45.74
2018-02-06T10:09:01.575Z,45.78
2018-02-06T10:11:27.546Z,45.86
2018-02-06T10:13:53.490Z,45.80
2018-02-06T10:16:19.457Z,45.96
2018-02-06T10:18:45.398Z,46.08
2018-02-06T10:21:11.369Z,46.11
2018-02-06T10:23:37.401Z,46.11
2018-02-06T10:26:03.340Z,46.36
2018-02-06T10:28:29.303Z,45.91
2018-02-06T10:30:55.311Z,45.77
2018-02-06T10:33:21.262Z,45.79
2018-02-06T10:35:47.208Z,45.54
2018-02-06T10:38:13.214Z,45.81
2018-02-06T10:40:39.152Z,45.94
2018-02-06T10:43:05.104Z,45.91
2018-02-06T10:45:31.133Z,45.97
2018-02-06T10:47:57.098Z,45.98
2018-02-06T10:50:23.087Z,46.23
2018-02-06T10:52:49.042Z,46.21
2018-02-06T10:55:15.016Z,46.21
2018-02-06T10:57:40.972Z,46.34
2018-02-06T11:00:06.923Z,46.23
2018-02-06T11:02:32.890Z,46.06
2018-02-06T11:04:58.828Z,46.27
2018-02-06T11:07:24.801Z,46.07
2018-02-06T11:09:50.760Z,46.17
2018-02-06T11:12:16.705Z,46.50
2018-02-06T11:14:42.660Z,46.54
2018-02-06T11:17:08.618Z,46.55
2018-02-06T11:19:34.586Z,46.91
2018-02-06T11:22:00.517Z,46.79
2018-02-06T11:24:26.476Z,46.58
2018-02-06T11:26:52.421Z,46.06
2018-02-06T11:29:18.401Z,45.54
2018-02-06T11:31:44.346Z,45.76
2018-02-06T11:34:10.311Z,45.64
2018-02-06T11:36:36.265Z,45.63
2018-02-06T11:39:02.213Z,45.79
2018-02-06T11:41:28.178Z,45.92
2018-02-06T11:43:54.237Z,46.05
2018-02-06T11:46:20.197Z,46.16
2018-02-06T11:48:46.161Z,46.04
2018-02-06T11:51:12.157Z,45.98
2018-02-06T11:53:38.081Z,46.24
2018-02-06T11:56:04.033Z,46.22
2018-02-06T11:58:29.972Z,46.20
2018-02-06T12:00:55.913Z,46.42
2018-02-06T12:03:21.877Z,46.26
2018-02-06T12:05:47.886Z,46.49
2018-02-06T12:08:13.857Z,46.76
2018-02-06T12:10:39.809Z,46.95
2018-02-06T12:13:05.753Z,46.64
2018-02-06T12:15:31.717Z,46.11
2018-02-06T12:17:57.661Z,45.63
2018-02-06T12:20:23.601Z,44.21
2018-02-06T12:22:49.565Z,44.54
2018-02-06T12:25:15.553Z,44.68
2018-02-06T12:27:41.517Z,44.89
2018-02-06T12:30:07.465Z,44.75
2018-02-06T12:32:33.428Z,45.00
2018-02-06T12:34:59.384Z,44.96
2018-02-06T12:37:25.334Z,44.92
2018-02-06T12:39:51.300Z,45.12
2018-02-06T12:42:17.341Z,45.05
2018-02-06T12:44:43.280Z,45.49
2018-02-06T12:47:09.249Z,45.07
2018-02-06T12:49:35.188Z,45.09
2018-02-06T12:52:01.150Z,45.17
2018-02-06T12:54:27.104Z,45.39
2018-02-06T12:56:53.049Z,45.52
2018-02-06T12:59:19.023Z,45.74
2018-02-06T13:01:44.966Z,45.75
2018-02-06T13:04:11.093Z,45.50
2018-02-06T13:06:37.024Z,45.50
2018-02-06T13:09:02.988Z,45.54
2018-02-06T13:11:28.925Z,45.44
2018-02-06T13:13:54.897Z,44.73
2018-02-06T13:16:20.841Z,44.84
2018-02-06T13:18:46.813Z,45.06
2018-02-06T13:21:12.815Z,44.99
2018-02-06T13:23:38.772Z,44.71
2018-02-06T13:26:04.740Z,44.93
2018-02-06T13:28:30.701Z,44.98
2018-02-06T13:30:56.658Z,45.20
2018-02-06T13:33:22.597Z,44.91
2018-02-06T13:35:48.582Z,46.24
2018-02-06T13:38:14.523Z,45.39
2018-02-06T13:40:40.465Z,45.53
2018-02-06T13:43:06.427Z,45.81
2018-02-06T13:45:32.389Z,46.00
2018-02-06T13:47:58.356Z,46.00
2018-02-06T13:50:24.320Z,46.60
2018-02-06T13:52:50.286Z,46.13
2018-02-06T13:55:16.222Z,46.08
2018-02-06T13:57:42.190Z,46.14
2018-02-06T14:00:08.129Z,46.36
2018-02-06T14:02:34.109Z,46.32
2018-02-06T14:05:00.055Z,46.14
2018-02-06T14:07:26.017Z,46.11
2018-02-06T14:09:51.956Z,46.22
2018-02-06T14:12:17.925Z,46.19
2018-02-06T14:14:43.865Z,45.63
2018-02-06T14:17:09.837Z,45.38
2018-02-06T14:19:35.805Z,45.30
2018-02-06T14:22:01.765Z,45.45
2018-02-06T14:24:27.709Z,45.62
2018-02-06T14:26:53.662Z,45.64
2018-02-06T14:29:19.661Z,45.88
2018-02-06T14:31:45.637Z,45.60
2018-02-06T14:34:11.597Z,45.81
2018-02-06T14:36:37.639Z,46.06
2018-02-06T14:39:03.588Z,46.21
2018-02-06T14:41:29.541Z,46.18
2018-02-06T14:43:55.482Z,46.32
2018-02-06T14:46:21.461Z,46.11
2018-02-06T14:48:47.398Z,46.22
2018-02-06T14:51:13.372Z,46.25
2018-02-06T14:53:39.328Z,46.58
2018-02-06T14:56:05.280Z,46.31
2018-02-06T14:58:31.327Z,46.26
2018-02-06T15:00:57.338Z,46.20
2018-02-06T15:03:23.361Z,46.26
2018-02-06T15:05:49.324Z,46.10
2018-02-06T15:08:15.269Z,46.24
2018-02-06T15:10:41.239Z,45.84
2018-02-06T15:13:07.294Z,45.42
2018-02-06T15:15:33.283Z,45.49
2018-02-06T15:17:59.240Z,45.46
2018-02-06T15:20:25.210Z,45.56
2018-02-06T15:22:51.265Z,45.76
2018-02-06T15:25:17.216Z,45.72
2018-02-06T15:27:43.201Z,45.68
2018-02-06T15:30:09.198Z,45.69
2018-02-06T15:32:35.166Z,46.12
2018-02-06T15:35:01.112Z,45.97
2018-02-06T15:37:27.116Z,45.70
2018-02-06T15:39:53.203Z,45.79
2018-02-06T15:42:19.142Z,45.86
2018-02-06T15:44:45.104Z,45.59
2018-02-06T15:47:11.064Z,45.75
2018-02-06T15:49:37.010Z,45.87
2018-02-06T15:54:35.330Z,45.62
2018-02-06T15:57:01.260Z,45.95
2018-02-06T15:59:27.282Z,45.96
2018-02-06T16:01:53.204Z,46.27
2018-02-06T16:04:19.185Z,46.68
2018-02-06T16:06:45.105Z,46.51
2018-02-06T16:09:11.109Z,45.39
2018-02-06T16:11:37.049Z,45.51
2018-02-06T16:14:03.013Z,44.97
2018-02-06T16:16:28.965Z,45.03
2018-02-06T16:18:54.917Z,45.17
2018-02-06T16:21:20.868Z,45.25
2018-02-06T16:23:46.821Z,45.34
2018-02-06T16:26:12.833Z,45.26
2018-02-06T16:28:38.821Z,45.39
2018-02-06T16:31:04.797Z,45.62
2018-02-06T16:33:30.784Z,45.84
2018-02-06T16:35:56.756Z,45.78
2018-02-06T16:38:22.724Z,45.61
2018-02-06T16:40:48.668Z,45.89
2018-02-06T16:43:14.638Z,46.04
2018-02-06T16:45:40.596Z,46.03
2018-02-06T16:48:06.557Z,46.01
2018-02-06T16:50:32.507Z,46.10
2018-02-06T16:52:58.475Z,46.11
2018-02-06T16:55:24.413Z,46.11
2018-02-06T16:57:50.398Z,45.54
2018-02-06T17:00:16.349Z,45.29
2018-02-06T17:02:42.295Z,45.65
2018-02-06T17:05:08.258Z,45.39
2018-02-06T17:07:34.219Z,46.10
2018-02-06T17:10:00.182Z,45.73
2018-02-06T17:12:26.129Z,45.71
2018-02-06T17:14:52.106Z,45.86
2018-02-06T17:17:18.045Z,46.09
2018-02-06T17:19:44.024Z,45.98
2018-02-06T17:22:09.973Z,45.89
2018-02-06T17:24:35.948Z,46.05
2018-02-06T17:27:01.886Z,46.00
2018-02-06T17:29:27.857Z,46.07
2018-02-06T17:31:53.815Z,46.29
2018-02-06T17:34:19.810Z,46.22
2018-02-06T17:36:45.733Z,46.15
2018-02-06T17:39:11.685Z,46.17
2018-02-06T17:41:37.629Z,46.35
2018-02-06T17:44:03.573Z,46.92
2018-02-06T17:46:29.542Z,46.42
2018-02-06T17:48:55.498Z,46.72
2018-02-06T17:51:21.470Z,46.44
2018-02-06T17:53:47.428Z,46.17
2018-02-06T17:56:13.377Z,45.69
2018-02-06T17:58:39.354Z,45.52
2018-02-06T18:01:05.293Z,45.41
2018-02-06T18:03:31.305Z,45.49
2018-02-06T18:05:57.261Z,45.56
2018-02-06T18:08:23.233Z,45.58
2018-02-06T18:10:49.210Z,45.66
2018-02-06T18:13:15.164Z,45.82
2018-02-06T18:15:41.129Z,45.87
2018-02-06T18:18:07.087Z,45.87
2018-02-06T18:20:33.082Z,45.95
2018-02-06T18:22:59.029Z,45.88
2018-02-06T18:25:24.984Z,46.03
2018-02-06T18:27:50.958Z,46.14
2018-02-06T18:30:16.901Z,45.92
2018-02-06T18:32:42.870Z,46.10
2018-02-06T18:35:08.821Z,46.35
2018-02-06T18:37:34.786Z,46.30
2018-02-06T18:40:00.740Z,46.07
2018-02-06T18:42:26.702Z,46.25
2018-02-06T18:44:52.657Z,46.29
2018-02-06T18:47:18.608Z,45.91
2018-02-06T18:49:44.579Z,46.21
2018-02-06T18:52:10.521Z,45.75
2018-02-06T18:54:36.517Z,45.45
2018-02-06T18:57:02.479Z,45.34
2018-02-06T18:59:28.446Z,45.45
2018-02-06T19:01:54.386Z,45.50
2018-02-06T19:04:20.358Z,45.55
2018-02-06T19:06:46.306Z,45.25
2018-02-06T19:09:12.262Z,45.68
2018-02-06T19:11:38.295Z,45.50
2018-02-06T19:14:04.203Z,45.79
2018-02-06T19:16:30.194Z,45.85
2018-02-06T19:18:56.146Z,45.80
2018-02-06T19:21:22.120Z,46.10
2018-02-06T19:23:48.088Z,46.32
2018-02-06T19:26:14.031Z,46.37
2018-02-06T19:28:39.978Z,46.39
2018-02-06T19:31:05.939Z,46.20
2018-02-06T19:33:31.905Z,46.26
2018-02-06T19:35:57.865Z,46.25
2018-02-06T19:38:23.869Z,46.13
2018-02-06T19:40:49.812Z,46.04
2018-02-06T19:43:15.753Z,46.02
2018-02-06T19:45:41.718Z,46.04
2018-02-06T19:48:07.657Z,46.10
2018-02-06T19:50:33.638Z,45.75
2018-02-06T19:52:59.589Z,45.66
2018-02-06T19:55:25.568Z,45.41
2018-02-06T19:57:51.518Z,45.55
2018-02-06T20:00:17.470Z,45.46
2018-02-06T20:02:43.432Z,45.50
2018-02-06T20:05:09.406Z,45.51
2018-02-06T20:07:35.444Z,45.63
2018-02-06T20:10:01.410Z,45.79
2018-02-06T20:12:27.365Z,45.96
2018-02-06T20:14:53.332Z,46.02
2018-02-06T20:17:19.291Z,46.29
2018-02-06T20:19:45.323Z,46.22
2018-02-06T20:22:11.297Z,45.89
2018-02-06T20:24:37.259Z,45.81
2018-02-06T20:27:03.195Z,45.81
2018-02-06T20:29:29.162Z,45.99
2018-02-06T20:31:55.131Z,45.98
2018-02-06T20:34:21.109Z,46.28
2018-02-06T20:36:47.063Z,46.38
2018-02-06T20:39:13.026Z,44.89
2018-02-06T20:41:39.022Z,43.80
2018-02-06T20:44:05.059Z,44.55
2018-02-06T20:46:30.970Z,44.92
2018-02-06T20:48:56.937Z,44.78
2018-02-06T20:51:23.117Z,44.65
2018-02-06T20:53:49.136Z,44.90
2018-02-06T20:56:15.081Z,44.95
2018-02-06T20:58:41.057Z,45.26
2018-02-06T21:01:07.004Z,45.79
2018-02-06T21:03:32.966Z,45.45
2018-02-06T21:05:58.901Z,45.36
2018-02-06T21:08:24.851Z,45.35
2018-02-06T21:10:50.809Z,45.22
2018-02-06T21:13:16.848Z,45.09
2018-02-06T21:15:42.789Z,44.49
2018-02-06T21:18:08.737Z,44.93
2018-02-06T21:20:34.721Z,45.56
2018-02-06T21:23:00.682Z,45.62
2018-02-06T21:25:26.637Z,45.60
2018-02-06T21:27:52.591Z,45.66
2018-02-06T21:30:18.538Z,45.62
2018-02-06T21:32:44.495Z,45.56
2018-02-06T21:35:10.455Z,45.88
2018-02-06T21:37:36.414Z,45.86
2018-02-06T21:40:02.368Z,45.64
2018-02-06T21:42:28.380Z,45.62
2018-02-06T21:44:54.314Z,45.57
2018-02-06T21:47:20.257Z,45.84
2018-02-06T21:49:46.220Z,47.12
2018-02-06T21:52:12.182Z,46.70
2018-02-06T21:54:38.161Z,46.95
2018-02-06T21:57:04.098Z,46.44
2018-02-06T21:59:30.061Z,46.56
2018-02-06T22:01:56.037Z,46.68
2018-02-06T22:04:22.007Z,46.56
2018-02-06T22:06:48.005Z,46.67
2018-02-06T22:09:14.034Z,46.57
2018-02-06T22:11:39.992Z,46.79
2018-02-06T22:14:05.990Z,46.65
2018-02-06T22:16:31.965Z,46.75
2018-02-06T22:18:57.933Z,46.77
2018-02-06T22:21:23.879Z,46.97
2018-02-06T22:23:49.838Z,46.81
2018-02-06T22:26:15.782Z,46.91
2018-02-06T22:28:41.751Z,46.97
2018-02-06T22:31:07.689Z,47.18
2018-02-06T22:33:33.677Z,47.36
2018-02-06T22:35:59.645Z,47.65
2018-02-06T22:38:25.634Z,47.56
2018-02-06T22:40:51.600Z,47.42
2018-02-06T22:43:17.544Z,47.32
2018-02-06T22:45:43.625Z,47.29
2018-02-06T22:48:09.561Z,47.20
2018-02-06T22:50:35.617Z,47.06
2018-02-06T22:53:01.671Z,47.00
2018-02-06T22:55:27.629Z,47.26
2018-02-06T22:57:53.593Z,47.22
2018-02-06T23:00:19.531Z,47.11
2018-02-06T23:02:45.641Z,47.01
2018-02-06T23:05:11.597Z,47.07
2018-02-06T23:07:37.582Z,47.08
2018-02-06T23:10:03.584Z,47.05
2018-02-06T23:12:29.547Z,47.18
2018-02-06T23:14:55.538Z,47.13
2018-02-06T23:17:21.515Z,46.99
2018-02-06T23:19:47.493Z,47.27
2018-02-06T23:22:13.469Z,47.40
2018-02-06T23:24:39.533Z,47.73
2018-02-06T23:27:05.498Z,47.41
2018-02-06T23:29:31.455Z,47.48
2018-02-06T23:31:57.409Z,47.43
2018-02-06T23:34:23.475Z,47.40
2018-02-06T23:36:49.569Z,47.29
2018-02-06T23:39:15.552Z,47.36
2018-02-06T23:41:41.549Z,47.10
2018-02-06T23:44:07.517Z,47.10
2018-02-06T23:46:33.552Z,47.20
2018-02-06T23:48:59.505Z,47.19
2018-02-06T23:51:25.469Z,47.15
2018-02-06T23:53:51.420Z,46.94
2018-02-06T23:56:17.385Z,46.92
2018-02-06T23:58:43.328Z,47.12
